createdAt,value
2024-01-11T00:03:25.886Z,32.23
2024-01-11T00:08:33.006Z,35.33
2024-01-11T00:13:40.793Z,34.00
2024-01-11T00:18:48.561Z,32.53
2024-01-11T00:23:53.930Z,31.40
2024-01-11T00:28:59.006Z,33.13
2024-01-11T00:34:07.039Z,29.90
2024-01-11T00:39:13.130Z,31.53
2024-01-11T00:44:18.652Z,30.80
2024-01-11T00:49:26.653Z,30.53
2024-01-11T00:54:31.934Z,34.23
2024-01-11T00:59:39.070Z,30.70
2024-01-11T01:04:57.929Z,30.67
2024-01-11T01:10:03.150Z,28.17
2024-01-11T01:15:11.206Z,29.30
2024-01-11T01:20:21.403Z,31.57
2024-01-11T01:25:27.032Z,31.33
2024-01-11T01:30:32.172Z,33.23
2024-01-11T01:35:40.193Z,31.97
2024-01-11T01:40:45.368Z,31.70
2024-01-11T01:45:52.571Z,32.17
2024-01-11T01:51:00.538Z,28.90
2024-01-11T01:56:09.972Z,27.70
2024-01-11T02:01:15.821Z,26.70
2024-01-11T02:06:26.382Z,26.07
2024-01-11T02:11:34.750Z,26.17
2024-01-11T02:16:40.492Z,27.10
2024-01-11T02:21:50.662Z,25.20
2024-01-11T02:27:06.065Z,25.37
2024-01-11T02:32:11.434Z,29.33
2024-01-11T02:37:17.241Z,29.20
2024-01-11T02:42:24.933Z,29.87
2024-01-11T02:47:31.166Z,26.13
2024-01-11T02:52:39.249Z,26.27
2024-01-11T02:57:47.011Z,24.00
2024-01-11T03:02:53.842Z,24.87
2024-01-11T03:07:58.932Z,28.10
2024-01-11T03:13:07.197Z,26.40
2024-01-11T03:18:12.818Z,25.73
2024-01-11T03:23:18.173Z,20.13
2024-01-11T03:28:26.066Z,20.93
2024-01-11T03:33:31.493Z,19.77
2024-01-11T03:38:38.920Z,19.80
2024-01-11T03:43:53.309Z,20.27
2024-01-11T03:49:00.278Z,22.73
2024-01-11T03:54:05.398Z,22.63
2024-01-11T03:59:15.660Z,23.07
2024-01-11T04:04:20.930Z,22.47
2024-01-11T04:09:26.052Z,24.53
2024-01-11T04:14:33.830Z,29.33
2024-01-11T04:19:38.918Z,27.57
2024-01-11T04:24:47.275Z,28.23
2024-01-11T04:29:54.886Z,29.27
2024-01-11T04:35:00.032Z,25.87
2024-01-11T04:40:05.294Z,21.87
2024-01-11T04:45:16.775Z,25.13
2024-01-11T04:50:23.109Z,19.87
2024-01-11T04:55:28.631Z,19.63
2024-01-11T05:00:36.347Z,21.07
2024-01-11T05:05:41.522Z,19.73
2024-01-11T05:10:46.899Z,21.43
2024-01-11T05:15:56.809Z,18.97
2024-01-11T05:21:01.940Z,21.17
2024-01-11T05:26:07.488Z,21.97
2024-01-11T05:31:17.045Z,21.37
2024-01-11T05:36:23.051Z,23.43
2024-01-11T05:41:28.287Z,23.77
2024-01-11T05:46:36.437Z,23.07
2024-01-11T05:51:41.838Z,22.67
2024-01-11T05:56:46.993Z,24.33
2024-01-11T06:01:55.055Z,23.47
2024-01-11T06:07:00.666Z,24.00
2024-01-11T06:12:05.725Z,24.40
2024-01-11T06:17:14.040Z,21.10
2024-01-11T06:22:19.865Z,21.57
2024-01-11T06:27:26.152Z,24.07
2024-01-11T06:32:34.296Z,21.90
2024-01-11T06:37:39.644Z,21.47
2024-01-11T06:42:44.793Z,20.13
2024-01-11T06:47:53.246Z,21.13
2024-01-11T06:52:58.615Z,20.67
2024-01-11T06:58:04.890Z,21.50
2024-01-11T07:03:13.201Z,23.77
2024-01-11T07:08:21.563Z,22.30
2024-01-11T07:13:26.848Z,22.63
2024-01-11T07:18:38.966Z,25.07
2024-01-11T07:23:44.713Z,23.50
2024-01-11T07:28:49.846Z,21.07
2024-01-11T07:33:57.718Z,21.07
2024-01-11T07:39:02.937Z,19.27
2024-01-11T07:44:08.362Z,21.90
2024-01-11T07:49:16.814Z,23.97
2024-01-11T07:54:22.038Z,26.43
2024-01-11T07:59:29.451Z,26.13
2024-01-11T08:04:40.311Z,23.27
2024-01-11T08:09:46.838Z,22.73
2024-01-11T08:14:52.461Z,24.47
2024-01-11T08:20:00.352Z,27.00
2024-01-11T08:25:06.789Z,23.17
2024-01-11T08:30:14.957Z,23.13
2024-01-11T08:35:22.925Z,24.20
2024-01-11T08:40:28.227Z,23.37
2024-01-11T08:45:33.671Z,24.83
2024-01-11T08:50:57.709Z,25.33
2024-01-11T08:56:06.752Z,27.47
2024-01-11T09:01:15.034Z,28.90
2024-01-11T09:06:23.080Z,29.30
2024-01-11T09:11:28.246Z,30.13
2024-01-11T09:16:34.229Z,30.03
2024-01-11T09:21:42.656Z,39.60
2024-01-11T09:26:47.970Z,33.23
2024-01-11T09:31:56.762Z,32.67
2024-01-11T09:37:05.105Z,33.00
2024-01-11T09:42:12.373Z,34.70
2024-01-11T09:47:21.704Z,35.77
2024-01-11T09:52:34.458Z,37.70
2024-01-11T09:57:45.537Z,37.20
2024-01-11T10:02:51.216Z,37.10
2024-01-11T10:07:59.169Z,39.30
2024-01-11T10:13:04.317Z,37.37
2024-01-11T10:18:10.108Z,38.50
2024-01-11T10:23:18.611Z,39.90
2024-01-11T10:28:26.333Z,39.50
2024-01-11T10:33:34.776Z,37.97
2024-01-11T10:38:43.917Z,36.17
2024-01-11T10:43:54.420Z,38.43
2024-01-11T10:49:02.623Z,36.57
2024-01-11T10:54:12.102Z,38.77
2024-01-11T10:59:20.924Z,36.20
2024-01-11T11:04:27.022Z,35.17
2024-01-11T11:09:38.245Z,36.00
2024-01-11T11:15:06.186Z,35.47
2024-01-11T11:20:26.797Z,35.90
2024-01-11T11:25:40.612Z,35.40
2024-01-11T11:30:50.145Z,36.60
2024-01-11T11:36:07.250Z,36.80
2024-01-11T11:41:22.975Z,35.97
2024-01-11T11:46:32.700Z,34.60
2024-01-11T11:51:43.905Z,34.70
2024-01-11T11:56:55.237Z,35.20
2024-01-11T12:02:04.988Z,34.23
2024-01-11T12:07:12.784Z,35.90
2024-01-11T12:12:22.728Z,35.33
2024-01-11T12:17:28.439Z,34.80
2024-01-11T12:22:35.853Z,35.07
2024-01-11T12:27:46.486Z,35.77
2024-01-11T12:32:57.061Z,35.10
2024-01-11T12:38:05.655Z,33.43
2024-01-11T12:43:16.687Z,32.33
2024-01-11T12:48:25.945Z,30.87
2024-01-11T12:53:39.881Z,35.00
2024-01-11T12:59:10.184Z,32.77
2024-01-11T13:04:16.484Z,32.93
2024-01-11T13:09:21.869Z,34.53
2024-01-11T13:14:30.421Z,34.63
2024-01-11T13:19:35.568Z,32.77
2024-01-11T13:24:40.731Z,33.90
2024-01-11T13:29:52.190Z,30.80
2024-01-11T13:35:00.542Z,31.47
2024-01-11T13:40:06.245Z,30.50
2024-01-11T13:45:16.135Z,31.70
2024-01-11T13:50:26.313Z,30.67
2024-01-11T13:55:40.051Z,32.43
2024-01-11T14:00:48.788Z,30.67
2024-01-11T14:05:54.323Z,31.47
2024-01-11T14:10:59.757Z,30.57
2024-01-11T14:16:19.857Z,31.33
2024-01-11T14:21:26.200Z,30.70
2024-01-11T14:26:36.358Z,29.20
2024-01-11T14:31:44.391Z,30.40
2024-01-11T14:36:52.198Z,31.20
2024-01-11T14:41:57.388Z,31.07
2024-01-11T14:47:05.661Z,29.27
2024-01-11T14:52:10.861Z,29.50
2024-01-11T14:57:16.651Z,28.90
2024-01-11T15:02:25.782Z,31.17
2024-01-11T15:07:32.362Z,31.17
2024-01-11T15:12:38.099Z,34.77
2024-01-11T15:17:47.086Z,29.17
2024-01-11T15:22:52.335Z,30.67
2024-01-11T15:27:57.951Z,30.10
2024-01-11T15:33:08.189Z,31.87
2024-01-11T15:38:13.471Z,32.50
2024-01-11T15:43:20.964Z,30.10
2024-01-11T15:48:28.788Z,31.00
2024-01-11T15:53:34.965Z,32.63
2024-01-11T15:58:40.761Z,34.03
2024-01-11T16:03:50.983Z,36.87
2024-01-11T16:08:57.414Z,32.87
2024-01-11T16:14:03.134Z,34.23
2024-01-11T16:19:13.320Z,32.20
2024-01-11T16:24:19.774Z,34.93
2024-01-11T16:29:25.212Z,35.90
2024-01-11T16:34:34.221Z,33.00
2024-01-11T16:39:41.680Z,37.30
2024-01-11T16:44:47.072Z,34.37
2024-01-11T16:49:55.367Z,32.53
2024-01-11T16:55:00.468Z,33.20
2024-01-11T17:00:08.858Z,33.93
2024-01-11T17:05:16.775Z,33.60
2024-01-11T17:10:23.826Z,33.23
2024-01-11T17:15:29.807Z,32.43
2024-01-11T17:20:37.549Z,28.53
2024-01-11T17:25:45.120Z,26.63
2024-01-11T17:30:50.309Z,24.60
2024-01-11T17:35:59.552Z,24.93
2024-01-11T17:41:07.546Z,23.17
2024-01-11T17:46:12.834Z,23.50
2024-01-11T17:51:20.599Z,20.87
2024-01-11T17:56:26.101Z,22.87
2024-01-11T18:01:34.048Z,22.30
2024-01-11T18:06:43.844Z,22.07
2024-01-11T18:11:51.722Z,19.47
2024-01-11T18:16:56.921Z,19.40
2024-01-11T18:22:05.732Z,20.50
2024-01-11T18:27:11.714Z,20.07
2024-01-11T18:32:16.887Z,20.40
2024-01-11T18:37:28.480Z,19.53
2024-01-11T18:42:33.940Z,20.30
2024-01-11T18:47:42.377Z,19.97
2024-01-11T18:52:51.845Z,19.77
2024-01-11T18:57:57.030Z,21.43
2024-01-11T19:03:02.938Z,20.53
2024-01-11T19:08:11.711Z,20.73
2024-01-11T19:13:19.777Z,20.93
2024-01-11T19:18:25.497Z,20.90
2024-01-11T19:23:36.714Z,21.67
2024-01-11T19:28:44.382Z,21.60
2024-01-11T19:33:50.039Z,22.70
2024-01-11T19:39:02.066Z,23.63
2024-01-11T19:44:09.645Z,24.10
2024-01-11T19:49:15.125Z,24.90
2024-01-11T19:54:23.490Z,24.80
2024-01-11T19:59:30.365Z,23.00
2024-01-11T20:04:36.048Z,22.33
2024-01-11T20:09:45.911Z,22.70
2024-01-11T20:14:54.110Z,23.87
2024-01-11T20:19:59.358Z,22.93
2024-01-11T20:25:07.712Z,22.40
2024-01-11T20:30:15.572Z,21.67
2024-01-11T20:35:21.423Z,20.73
2024-01-11T20:40:29.198Z,19.63
2024-01-11T20:45:34.711Z,18.57
2024-01-11T20:50:41.626Z,18.63
2024-01-11T20:55:56.318Z,18.00
2024-01-11T21:01:07.189Z,18.03
2024-01-11T21:06:14.620Z,18.43
2024-01-11T21:11:22.801Z,17.27
2024-01-11T21:16:28.076Z,17.37
2024-01-11T21:21:33.190Z,16.07
2024-01-11T21:26:41.293Z,16.87
2024-01-11T21:31:46.957Z,18.10
2024-01-11T21:36:52.092Z,16.80
2024-01-11T21:41:59.977Z,16.60
2024-01-11T21:47:05.201Z,17.67
2024-01-11T21:52:10.515Z,17.60
2024-01-11T21:57:18.237Z,16.40
2024-01-11T22:02:23.451Z,16.57
2024-01-11T22:07:28.550Z,18.13
2024-01-11T22:12:36.330Z,17.23
2024-01-11T22:17:41.551Z,15.57
2024-01-11T22:22:46.940Z,16.50
2024-01-11T22:27:57.079Z,15.80
2024-01-11T22:33:04.750Z,15.47
2024-01-11T22:38:10.107Z,17.27
2024-01-11T22:43:18.434Z,15.20
2024-01-11T22:48:23.710Z,15.67
2024-01-11T22:53:36.736Z,17.03
2024-01-11T22:58:46.983Z,15.90
2024-01-11T23:03:52.279Z,15.43
2024-01-11T23:08:57.487Z,15.93
2024-01-11T23:14:06.991Z,15.43
2024-01-11T23:19:12.082Z,17.13
2024-01-11T23:24:17.343Z,16.87
2024-01-11T23:29:26.233Z,14.67
2024-01-11T23:34:31.854Z,16.70
2024-01-11T23:39:37.174Z,18.13
2024-01-11T23:44:45.595Z,14.73
2024-01-11T23:49:50.823Z,15.77
2024-01-11T23:54:56.108Z,17.10
